createdAt,value
2019-02-25T00:00:51.922Z,53.17
2019-02-25T00:03:21.635Z,52.37
2019-02-25T00:05:51.467Z,50.50
2019-02-25T00:08:21.168Z,60.50
2019-02-25T00:10:51.042Z,50.93
2019-02-25T00:13:20.956Z,52.03
2019-02-25T00:15:50.669Z,55.47
2019-02-25T00:18:20.575Z,55.03
2019-02-25T00:20:50.231Z,57.57
2019-02-25T00:23:19.904Z,58.60
2019-02-25T00:25:49.685Z,64.40
2019-02-25T00:28:19.351Z,68.13
2019-02-25T00:30:48.986Z,68.40
2019-02-25T00:33:18.925Z,64.33
2019-02-25T00:35:48.670Z,71.87
2019-02-25T00:38:18.363Z,79.50
2019-02-25T00:40:48.197Z,73.57
2019-02-25T00:43:18.019Z,78.40
2019-02-25T00:45:47.681Z,79.97
2019-02-25T00:48:17.441Z,79.13
2019-02-25T00:50:47.179Z,75.30
2019-02-25T00:53:16.949Z,71.20
2019-02-25T00:55:46.823Z,71.63
2019-02-25T00:58:16.450Z,70.73
2019-02-25T01:00:46.281Z,67.87
2019-02-25T01:03:16.251Z,70.23
2019-02-25T01:05:46.029Z,64.90
2019-02-25T01:08:16.137Z,58.40
2019-02-25T01:10:45.869Z,62.97
2019-02-25T01:13:15.711Z,67.90
2019-02-25T01:15:45.580Z,66.17
2019-02-25T01:18:15.272Z,63.80
2019-02-25T01:20:44.976Z,61.20
2019-02-25T01:23:14.863Z,62.77
2019-02-25T01:25:44.806Z,58.77
2019-02-25T01:28:14.451Z,56.00
2019-02-25T01:30:44.275Z,57.20
2019-02-25T01:33:14.241Z,58.20
2019-02-25T01:35:44.073Z,56.23
2019-02-25T01:38:15.625Z,54.40
2019-02-25T01:40:45.012Z,46.73
2019-02-25T01:43:14.823Z,53.83
2019-02-25T01:45:44.400Z,61.00
2019-02-25T01:48:14.157Z,52.77
2019-02-25T01:50:43.784Z,53.07
2019-02-25T01:53:13.726Z,54.07
2019-02-25T01:55:43.356Z,51.30
2019-02-25T01:58:13.104Z,51.33
2019-02-25T02:00:42.910Z,53.00
2019-02-25T02:03:12.769Z,48.83
2019-02-25T02:05:42.454Z,54.37
2019-02-25T02:08:12.156Z,51.30
2019-02-25T02:10:41.917Z,44.60
2019-02-25T02:13:14.404Z,46.70
2019-02-25T02:15:43.508Z,56.23
2019-02-25T02:18:13.218Z,46.70
2019-02-25T02:20:42.966Z,47.90
2019-02-25T02:23:12.759Z,47.43
2019-02-25T02:25:42.513Z,48.10
2019-02-25T02:28:12.142Z,43.20
2019-02-25T02:30:41.846Z,50.97
2019-02-25T02:33:11.690Z,46.13
2019-02-25T02:35:41.431Z,48.37
2019-02-25T02:38:14.174Z,43.50
2019-02-25T02:40:43.877Z,46.13
2019-02-25T02:43:13.669Z,39.30
2019-02-25T02:46:01.577Z,47.50
2019-02-25T02:48:39.575Z,44.30
2019-02-25T02:51:09.281Z,47.13
2019-02-25T02:53:39.291Z,46.33
2019-02-25T02:56:08.931Z,43.63
2019-02-25T02:58:38.757Z,42.20
2019-02-25T03:01:08.534Z,45.33
2019-02-25T03:03:38.258Z,38.90
2019-02-25T03:06:07.989Z,48.80
2019-02-25T03:08:37.700Z,38.07
2019-02-25T03:11:07.721Z,41.40
2019-02-25T03:13:37.392Z,41.37
2019-02-25T03:16:07.028Z,39.00
2019-02-25T03:18:36.788Z,39.00
2019-02-25T03:21:06.469Z,37.17
2019-02-25T03:23:36.152Z,41.63
2019-02-25T03:26:05.903Z,32.63
2019-02-25T03:28:35.602Z,33.97
2019-02-25T03:31:05.304Z,39.10
2019-02-25T03:33:35.002Z,37.33
2019-02-25T03:36:04.759Z,40.90
2019-02-25T03:38:34.431Z,36.33
2019-02-25T03:41:04.266Z,39.00
2019-02-25T03:43:34.009Z,32.33
2019-02-25T03:46:03.769Z,33.43
2019-02-25T03:48:33.734Z,36.40
2019-02-25T03:51:03.448Z,38.93
2019-02-25T03:53:33.119Z,34.93
2019-02-25T03:56:02.893Z,36.33
2019-02-25T03:58:32.763Z,35.93
2019-02-25T04:01:02.598Z,35.90
2019-02-25T04:03:32.451Z,37.50
2019-02-25T04:06:02.280Z,38.53
2019-02-25T04:08:32.132Z,30.83
2019-02-25T04:11:01.882Z,36.10
2019-02-25T04:13:31.828Z,30.63
2019-02-25T04:16:03.132Z,38.47
2019-02-25T04:18:32.935Z,36.33
2019-02-25T04:21:02.773Z,39.23
2019-02-25T04:23:32.545Z,30.30
2019-02-25T04:26:02.233Z,30.13
2019-02-25T04:28:32.342Z,37.20
2019-02-25T04:31:02.107Z,30.93
2019-02-25T04:33:31.771Z,34.97
2019-02-25T04:36:01.524Z,37.07
2019-02-25T04:38:31.404Z,35.10
2019-02-25T04:41:01.239Z,43.30
2019-02-25T04:43:30.923Z,38.63
2019-02-25T04:46:00.672Z,35.40
2019-02-25T04:48:30.460Z,36.03
2019-02-25T04:51:00.103Z,37.23
2019-02-25T04:53:29.997Z,36.30
2019-02-25T04:55:59.751Z,32.67
2019-02-25T04:58:29.440Z,37.23
2019-02-25T05:00:59.184Z,35.33
2019-02-25T05:03:28.860Z,33.80
2019-02-25T05:05:58.625Z,36.50
2019-02-25T05:08:28.317Z,35.00
2019-02-25T05:10:57.956Z,35.33
2019-02-25T05:13:27.732Z,38.10
2019-02-25T05:15:57.334Z,34.57
2019-02-25T05:18:27.080Z,33.00
2019-02-25T05:20:56.795Z,33.73
2019-02-25T05:23:27.148Z,40.63
2019-02-25T05:25:56.800Z,38.73
2019-02-25T05:28:26.442Z,37.30
2019-02-25T05:30:56.117Z,38.27
2019-02-25T05:33:25.808Z,37.70
2019-02-25T05:35:55.610Z,37.23
2019-02-25T05:38:25.260Z,36.77
2019-02-25T05:40:55.134Z,34.20
2019-02-25T05:43:24.889Z,35.47
2019-02-25T05:45:54.581Z,35.63
2019-02-25T05:48:24.208Z,31.87
2019-02-25T05:50:54.039Z,31.60
2019-02-25T05:53:23.742Z,32.80
2019-02-25T05:55:53.460Z,34.53
2019-02-25T05:58:23.213Z,30.20
2019-02-25T06:00:52.962Z,35.57
2019-02-25T06:03:22.610Z,45.23
2019-02-25T06:05:52.369Z,133.47
2019-02-25T06:08:22.089Z,109.80
2019-02-25T06:10:51.881Z,106.73
2019-02-25T06:13:21.531Z,97.67
2019-02-25T06:15:51.513Z,95.23
2019-02-25T06:18:21.299Z,85.00
2019-02-25T06:20:51.075Z,84.33
2019-02-25T06:23:20.711Z,75.03
2019-02-25T06:25:50.504Z,73.13
2019-02-25T06:28:20.411Z,68.53
2019-02-25T06:30:50.241Z,71.67
2019-02-25T06:33:19.989Z,70.60
2019-02-25T06:35:49.733Z,64.40
2019-02-25T06:38:19.490Z,65.00
2019-02-25T06:40:49.217Z,51.93
2019-02-25T06:43:19.384Z,57.63
2019-02-25T06:45:49.327Z,56.37
2019-02-25T06:48:19.080Z,58.83
2019-02-25T06:50:48.840Z,51.30
2019-02-25T06:53:18.543Z,53.60
2019-02-25T06:55:48.258Z,46.50
2019-02-25T06:58:18.073Z,49.27
2019-02-25T07:00:47.775Z,47.27
2019-02-25T07:03:17.519Z,44.43
2019-02-25T07:05:51.889Z,41.07
2019-02-25T07:08:23.216Z,39.63
2019-02-25T07:10:57.377Z,45.97
2019-02-25T07:13:47.015Z,34.27
2019-02-25T07:16:33.062Z,32.50
2019-02-25T07:19:16.043Z,39.60
2019-02-25T07:21:50.242Z,39.10
2019-02-25T07:24:37.659Z,38.77
2019-02-25T07:27:09.021Z,32.33
2019-02-25T07:29:40.362Z,36.00
2019-02-25T07:32:30.110Z,32.60
2019-02-25T07:35:01.259Z,37.43
2019-02-25T07:37:38.261Z,37.00
2019-02-25T07:40:29.162Z,37.23
2019-02-25T07:43:03.527Z,37.70
2019-02-25T07:45:37.908Z,33.70
2019-02-25T07:48:12.265Z,35.37
2019-02-25T07:50:49.726Z,35.20
2019-02-25T07:53:33.020Z,31.17
2019-02-25T07:56:07.485Z,27.57
2019-02-25T07:58:51.037Z,30.40
2019-02-25T08:01:34.274Z,30.83
2019-02-25T08:04:08.428Z,31.77
2019-02-25T08:06:39.759Z,34.80
2019-02-25T08:09:11.436Z,34.70
2019-02-25T08:11:42.757Z,30.67
2019-02-25T08:14:19.902Z,29.83
2019-02-25T08:16:51.174Z,29.10
2019-02-25T08:19:22.559Z,33.67
2019-02-25T08:21:54.044Z,30.87
2019-02-25T08:24:30.486Z,26.93
2019-02-25T08:26:58.345Z,32.07
2019-02-25T08:29:29.842Z,30.20
2019-02-25T08:32:13.428Z,35.13
2019-02-25T08:35:01.335Z,33.13
2019-02-25T08:37:41.691Z,34.87
2019-02-25T08:40:27.577Z,30.30
2019-02-25T08:42:57.787Z,31.47
2019-02-25T08:45:29.269Z,30.27
2019-02-25T08:48:03.739Z,31.77
2019-02-25T08:50:33.507Z,31.10
2019-02-25T08:53:03.395Z,31.87
2019-02-25T08:55:33.177Z,32.17
2019-02-25T08:58:02.987Z,36.03
2019-02-25T09:00:32.893Z,31.60
2019-02-25T09:03:02.601Z,30.10
2019-02-25T09:05:32.365Z,30.70
2019-02-25T09:08:02.039Z,32.17
2019-02-25T09:10:31.812Z,32.10
2019-02-25T09:13:01.634Z,30.90
2019-02-25T09:15:32.540Z,36.57
2019-02-25T09:18:01.340Z,30.83
2019-02-25T09:20:31.228Z,37.93
2019-02-25T09:23:01.012Z,37.40
2019-02-25T09:25:30.868Z,35.87
2019-02-25T09:28:00.530Z,34.97
2019-02-25T09:30:30.253Z,32.30
2019-02-25T09:33:00.075Z,34.80
2019-02-25T09:35:29.926Z,37.00
2019-02-25T09:37:59.749Z,33.83
2019-02-25T09:40:29.469Z,30.77
2019-02-25T09:42:59.304Z,32.73
2019-02-25T09:45:29.061Z,34.73
2019-02-25T09:47:58.907Z,35.17
2019-02-25T09:50:29.132Z,39.17
2019-02-25T09:52:58.788Z,41.80
2019-02-25T09:55:28.543Z,34.73
2019-02-25T09:57:58.273Z,45.87
2019-02-25T10:00:28.442Z,35.53
2019-02-25T10:02:58.183Z,39.07
2019-02-25T10:05:27.948Z,40.50
2019-02-25T10:07:57.693Z,39.20
2019-02-25T10:10:27.487Z,42.53
2019-02-25T10:12:57.224Z,40.83
2019-02-25T10:15:28.193Z,41.00
2019-02-25T10:17:58.016Z,40.57
2019-02-25T10:20:27.801Z,43.70
2019-02-25T10:22:57.522Z,42.43
2019-02-25T10:25:27.366Z,50.33
2019-02-25T10:27:57.127Z,46.83
2019-02-25T10:30:26.905Z,47.17
2019-02-25T10:32:56.538Z,48.47
2019-02-25T10:35:30.093Z,44.67
2019-02-25T10:38:01.072Z,44.17
2019-02-25T10:40:31.153Z,42.17
2019-02-25T10:43:00.848Z,44.33
2019-02-25T10:45:30.626Z,46.97
2019-02-25T10:48:00.381Z,45.17
2019-02-25T10:50:31.194Z,41.07
2019-02-25T10:53:03.765Z,46.80
2019-02-25T10:55:44.950Z,46.57
2019-02-25T10:58:13.402Z,51.40
2019-02-25T11:00:43.781Z,52.43
2019-02-25T11:03:15.313Z,48.43
2019-02-25T11:05:46.224Z,45.00
2019-02-25T11:08:17.527Z,49.50
2019-02-25T11:10:50.690Z,53.47
2019-02-25T11:13:20.467Z,50.53
2019-02-25T11:15:50.081Z,54.37
2019-02-25T11:18:21.838Z,58.20
2019-02-25T11:20:51.021Z,57.23
2019-02-25T11:23:21.649Z,56.60
2019-02-25T11:25:51.953Z,56.20
2019-02-25T11:28:25.762Z,66.27
2019-02-25T11:30:54.235Z,63.73
2019-02-25T11:33:25.250Z,59.03
2019-02-25T11:35:55.325Z,64.83
2019-02-25T11:38:26.030Z,70.67
2019-02-25T11:40:56.422Z,75.27
2019-02-25T11:43:26.173Z,71.10
2019-02-25T11:45:55.877Z,65.83
2019-02-25T11:48:25.573Z,73.10
2019-02-25T11:50:55.287Z,78.87
2019-02-25T11:53:25.102Z,64.50
2019-02-25T11:55:54.830Z,66.37
2019-02-25T11:58:24.502Z,70.07
2019-02-25T12:00:54.199Z,71.90
2019-02-25T12:03:23.878Z,73.60
2019-02-25T12:05:53.649Z,72.03
2019-02-25T12:08:23.465Z,58.27
2019-02-25T12:10:53.283Z,68.10
2019-02-25T12:13:22.969Z,69.60
2019-02-25T12:15:52.616Z,62.33
2019-02-25T12:18:22.433Z,73.13
2019-02-25T12:20:52.268Z,73.03
2019-02-25T12:23:21.899Z,66.00
2019-02-25T12:25:51.775Z,68.60
2019-02-25T12:28:21.613Z,64.67
2019-02-25T12:30:51.414Z,63.27
2019-02-25T12:33:21.273Z,68.87
2019-02-25T12:35:51.147Z,64.37
2019-02-25T12:38:20.953Z,59.13
2019-02-25T12:40:50.658Z,59.77
2019-02-25T12:43:20.388Z,67.00
2019-02-25T12:45:50.165Z,60.57
2019-02-25T12:48:19.796Z,58.00
2019-02-25T12:50:49.467Z,64.00
2019-02-25T12:53:19.216Z,55.50
2019-02-25T12:55:49.071Z,59.80
2019-02-25T12:58:18.832Z,56.47
2019-02-25T13:00:48.663Z,60.17
2019-02-25T13:03:18.365Z,59.80
2019-02-25T13:05:48.059Z,63.70
2019-02-25T13:08:17.915Z,61.43
2019-02-25T13:10:47.848Z,53.50
2019-02-25T13:13:17.616Z,59.30
2019-02-25T13:15:47.336Z,57.90
2019-02-25T13:18:17.268Z,58.93
2019-02-25T13:20:47.046Z,65.10
2019-02-25T13:23:16.797Z,65.53
2019-02-25T13:25:46.547Z,67.60
2019-02-25T13:28:16.330Z,70.43
2019-02-25T13:30:46.166Z,67.20
2019-02-25T13:33:15.887Z,74.83
2019-02-25T13:35:45.792Z,67.20
2019-02-25T13:38:15.906Z,78.90
2019-02-25T13:40:45.628Z,66.97
2019-02-25T13:43:15.483Z,85.17
2019-02-25T13:45:45.324Z,78.83
2019-02-25T13:48:15.090Z,84.80
2019-02-25T13:50:44.834Z,84.00
2019-02-25T13:53:14.607Z,78.53
2019-02-25T13:55:44.616Z,82.43
2019-02-25T13:58:14.429Z,87.77
2019-02-25T14:00:44.323Z,89.87
2019-02-25T14:03:14.003Z,88.03
2019-02-25T14:05:43.796Z,89.23
2019-02-25T14:08:13.462Z,83.10
2019-02-25T14:10:43.267Z,90.50
2019-02-25T14:13:13.038Z,84.93
2019-02-25T14:15:42.662Z,83.57
2019-02-25T14:18:12.409Z,94.70
2019-02-25T14:20:42.484Z,87.67
2019-02-25T14:23:12.314Z,96.63
2019-02-25T14:25:42.343Z,89.77
2019-02-25T14:28:12.218Z,97.07
2019-02-25T14:30:41.988Z,99.43
2019-02-25T14:33:12.622Z,89.00
2019-02-25T14:35:43.268Z,96.93
2019-02-25T14:38:17.286Z,90.77
2019-02-25T14:40:46.648Z,93.37
2019-02-25T14:43:17.693Z,104.77
2019-02-25T14:45:53.115Z,94.90
2019-02-25T14:48:20.735Z,96.13
2019-02-25T14:50:51.530Z,89.63
2019-02-25T14:53:21.495Z,98.73
2019-02-25T14:55:53.125Z,100.87
2019-02-25T14:58:22.643Z,87.90
2019-02-25T15:00:52.410Z,99.57
2019-02-25T15:03:22.683Z,97.13
2019-02-25T15:05:55.003Z,104.50
2019-02-25T15:08:26.347Z,88.87
2019-02-25T15:11:00.058Z,97.70
2019-02-25T15:13:28.214Z,94.67
2019-02-25T15:15:59.549Z,96.87
2019-02-25T15:18:31.167Z,88.07
2019-02-25T15:21:02.482Z,88.97
2019-02-25T15:23:32.177Z,91.63
2019-02-25T15:26:05.438Z,93.10
2019-02-25T15:28:33.326Z,100.80
2019-02-25T15:31:04.414Z,98.37
2019-02-25T15:33:35.832Z,95.87
2019-02-25T15:36:06.844Z,94.77
2019-02-25T15:38:37.026Z,88.53
2019-02-25T15:41:09.597Z,85.10
2019-02-25T15:43:39.883Z,86.07
2019-02-25T15:46:10.408Z,90.83
2019-02-25T15:48:41.916Z,86.27
2019-02-25T15:51:12.920Z,96.70
2019-02-25T15:53:46.219Z,95.73
2019-02-25T15:56:14.675Z,93.20
2019-02-25T15:58:44.461Z,90.90
2019-02-25T16:01:15.315Z,95.03
2019-02-25T16:03:45.166Z,89.70
2019-02-25T16:06:14.876Z,86.50
2019-02-25T16:08:45.262Z,95.83
2019-02-25T16:11:18.313Z,87.77
2019-02-25T16:13:47.789Z,82.00
2019-02-25T16:16:17.496Z,95.23
2019-02-25T16:18:47.331Z,92.80
2019-02-25T16:21:17.148Z,92.20
2019-02-25T16:23:46.973Z,90.33
2019-02-25T16:26:18.266Z,82.47
2019-02-25T16:28:50.271Z,86.70
2019-02-25T16:31:19.669Z,93.30
2019-02-25T16:33:51.238Z,85.17
2019-02-25T16:36:21.945Z,87.70
2019-02-25T16:38:55.560Z,90.43
2019-02-25T16:41:27.463Z,87.90
2019-02-25T16:43:57.116Z,96.90
2019-02-25T16:46:26.655Z,83.80
2019-02-25T16:48:57.404Z,82.80
2019-02-25T16:51:28.137Z,87.00
2019-02-25T16:53:59.739Z,93.67
2019-02-25T16:56:29.965Z,94.53
2019-02-25T16:58:59.700Z,87.30
2019-02-25T17:01:30.020Z,95.03
2019-02-25T17:04:00.783Z,97.63
2019-02-25T17:06:32.081Z,88.10
2019-02-25T17:09:02.048Z,90.40
2019-02-25T17:11:31.958Z,94.10
2019-02-25T17:14:03.686Z,84.47
2019-02-25T17:16:33.253Z,88.13
2019-02-25T17:19:03.140Z,89.30
2019-02-25T17:21:32.828Z,90.87
2019-02-25T17:24:03.618Z,89.60
2019-02-25T17:26:33.915Z,98.10
2019-02-25T17:29:03.758Z,127.80
2019-02-25T17:31:34.561Z,127.53
2019-02-25T17:34:05.500Z,122.70
2019-02-25T17:36:35.276Z,108.43
2019-02-25T17:39:08.753Z,113.27
2019-02-25T17:41:39.932Z,108.17
2019-02-25T17:44:09.887Z,105.10
2019-02-25T17:46:41.280Z,94.80
2019-02-25T17:49:12.283Z,106.20
2019-02-25T17:51:42.797Z,92.67
2019-02-25T17:54:14.497Z,91.60
2019-02-25T17:56:45.282Z,100.80
2019-02-25T17:59:15.326Z,93.00
2019-02-25T18:01:46.373Z,94.10
2019-02-25T18:04:16.857Z,97.40
2019-02-25T18:06:46.735Z,93.40
2019-02-25T18:09:18.260Z,95.73
2019-02-25T18:11:48.300Z,91.43
2019-02-25T18:14:19.719Z,91.77
2019-02-25T18:16:51.280Z,89.97
2019-02-25T18:19:23.060Z,91.63
2019-02-25T18:21:52.582Z,93.30
2019-02-25T18:24:22.343Z,90.17
2019-02-25T18:26:52.118Z,97.30
2019-02-25T18:29:22.649Z,96.60
2019-02-25T18:31:53.481Z,84.17
2019-02-25T18:34:23.202Z,86.13
2019-02-25T18:36:53.717Z,93.43
2019-02-25T18:39:25.347Z,81.83
2019-02-25T18:41:56.996Z,84.27
2019-02-25T18:44:27.232Z,94.10
2019-02-25T18:46:57.120Z,91.50
2019-02-25T18:49:28.235Z,91.37
2019-02-25T18:51:58.263Z,94.53
2019-02-25T18:54:27.963Z,88.47
2019-02-25T18:56:59.092Z,99.90
2019-02-25T18:59:29.702Z,89.43
2019-02-25T19:01:59.750Z,91.93
2019-02-25T19:04:29.439Z,85.63
2019-02-25T19:06:59.854Z,98.20
2019-02-25T19:09:30.670Z,86.77
2019-02-25T19:12:00.430Z,88.83
2019-02-25T19:14:31.155Z,104.17
2019-02-25T19:17:04.843Z,91.17
2019-02-25T19:19:36.728Z,95.93
2019-02-25T19:22:08.147Z,92.40
2019-02-25T19:24:41.647Z,100.27
2019-02-25T19:27:10.539Z,95.60
2019-02-25T19:29:40.711Z,96.33
2019-02-25T19:32:10.590Z,89.70
2019-02-25T19:34:40.613Z,94.57
2019-02-25T19:37:12.190Z,95.50
2019-02-25T19:39:43.796Z,92.03
2019-02-25T19:42:19.788Z,91.30
2019-02-25T19:44:49.299Z,102.73
2019-02-25T19:47:19.380Z,85.60
2019-02-25T19:49:49.348Z,94.90
2019-02-25T19:52:19.444Z,100.83
2019-02-25T19:54:50.761Z,96.60
2019-02-25T19:57:21.665Z,87.43
2019-02-25T19:59:53.076Z,93.57
2019-02-25T20:02:24.754Z,93.90
2019-02-25T20:04:55.355Z,94.13
2019-02-25T20:07:27.917Z,91.00
2019-02-25T20:09:57.957Z,90.07
2019-02-25T20:12:35.175Z,82.50
2019-02-25T20:15:13.652Z,100.30
2019-02-25T20:17:46.128Z,92.13
2019-02-25T20:20:16.369Z,97.63
2019-02-25T20:22:46.515Z,91.07
2019-02-25T20:25:18.840Z,89.80
2019-02-25T20:27:48.906Z,95.83
2019-02-25T20:30:21.362Z,94.60
2019-02-25T20:32:50.981Z,102.03
2019-02-25T20:35:22.200Z,98.97
2019-02-25T20:37:53.735Z,93.00
2019-02-25T20:40:25.969Z,92.17
2019-02-25T20:42:56.122Z,95.30
2019-02-25T20:45:31.030Z,93.70
2019-02-25T20:48:01.944Z,93.70
2019-02-25T20:50:32.138Z,98.83
2019-02-25T20:53:05.606Z,99.13
2019-02-25T20:55:35.920Z,96.23
2019-02-25T20:58:05.033Z,98.13
2019-02-25T21:00:38.913Z,88.50
2019-02-25T21:03:06.321Z,97.10
2019-02-25T21:05:36.427Z,99.27
2019-02-25T21:08:06.325Z,92.73
2019-02-25T21:10:36.254Z,100.23
2019-02-25T21:13:06.370Z,97.07
2019-02-25T21:15:38.243Z,102.27
2019-02-25T21:18:07.896Z,110.13
2019-02-25T21:20:38.227Z,95.83
2019-02-25T21:23:10.156Z,97.27
2019-02-25T21:25:39.397Z,97.57
2019-02-25T21:28:10.866Z,93.33
2019-02-25T21:30:41.819Z,92.47
2019-02-25T21:33:15.315Z,91.63
2019-02-25T21:35:43.592Z,92.90
2019-02-25T21:38:13.315Z,95.37
2019-02-25T21:40:43.978Z,106.00
2019-02-25T21:43:16.597Z,91.33
2019-02-25T21:45:48.338Z,84.47
2019-02-25T21:48:21.150Z,96.30
2019-02-25T21:50:49.086Z,91.10
2019-02-25T21:53:18.745Z,92.90
2019-02-25T21:55:48.483Z,91.40
2019-02-25T21:58:18.959Z,93.90
2019-02-25T22:00:49.555Z,95.50
2019-02-25T22:03:20.123Z,92.17
2019-02-25T22:05:53.229Z,104.17
2019-02-25T22:08:24.160Z,103.90
2019-02-25T22:10:53.477Z,94.93
2019-02-25T22:13:23.363Z,97.20
2019-02-25T22:15:53.276Z,82.10
2019-02-25T22:18:23.047Z,97.57
2019-02-25T22:20:53.004Z,90.77
2019-02-25T22:23:24.343Z,102.27
2019-02-25T22:25:54.296Z,108.70
2019-02-25T22:28:24.063Z,96.17
2019-02-25T22:30:54.107Z,96.87
2019-02-25T22:33:27.874Z,92.33
2019-02-25T22:35:55.494Z,97.23
2019-02-25T22:38:25.238Z,95.50
2019-02-25T22:40:55.920Z,92.87
2019-02-25T22:43:26.501Z,86.30
2019-02-25T22:45:59.966Z,103.53
2019-02-25T22:48:30.237Z,91.90
2019-02-25T22:51:00.714Z,86.40
2019-02-25T22:53:30.492Z,93.73
2019-02-25T22:56:00.370Z,97.73
2019-02-25T22:58:31.742Z,106.63
2019-02-25T23:01:04.533Z,108.80
2019-02-25T23:03:34.325Z,95.97
2019-02-25T23:06:04.510Z,102.57
2019-02-25T23:08:34.358Z,94.97
2019-02-25T23:11:04.139Z,94.10
2019-02-25T23:13:33.950Z,96.93
2019-02-25T23:16:04.444Z,100.60
2019-02-25T23:18:34.207Z,90.40
2019-02-25T23:21:03.924Z,96.80
2019-02-25T23:23:35.620Z,98.40
2019-02-25T23:26:05.074Z,94.57
2019-02-25T23:28:34.770Z,99.93
2019-02-25T23:31:04.584Z,89.23
2019-02-25T23:33:34.220Z,96.13
2019-02-25T23:36:03.973Z,102.80
2019-02-25T23:38:33.663Z,99.33
2019-02-25T23:41:05.425Z,101.00
2019-02-25T23:43:37.789Z,103.10
2019-02-25T23:46:07.084Z,96.60
2019-02-25T23:48:38.605Z,103.03
2019-02-25T23:51:08.821Z,106.90
2019-02-25T23:53:38.599Z,104.73
2019-02-25T23:56:08.317Z,98.73
2019-02-25T23:58:40.326Z,105.60
